Time;durP1;ratioP1;P1;durP2;ratioP2;P2;SDS_P1;SDS_P2;PMS_P1;PMS_P2;Temp;Humidity;BMP_temperature;BMP_pressure;BME280_temperature;BME280_humidity;BME280_pressure;Samples;Min_cycle;Max_cycle;Signal;HPM_P1;HPM_P2
2021/04/22 00:01:18;;;;;;;16.58;11.80;;;6.00;99.90;;;;;;6225046;23;20381;-93
2021/04/22 00:04:12;;;;;;;18.58;12.30;;;6.10;99.90;;;;;;6224123;23;20390;-94
2021/04/22 00:06:56;;;;;;;18.58;12.10;;;6.00;99.90;;;;;;6222684;23;20509;-93
2021/04/22 00:09:43;;;;;;;16.50;11.85;;;6.00;99.90;;;;;;6224427;23;20394;-93
2021/04/22 00:12:30;;;;;;;17.48;12.75;;;6.10;99.90;;;;;;6219709;23;20374;-92
2021/04/22 00:15:19;;;;;;;21.15;12.65;;;6.10;99.90;;;;;;6225780;23;20416;-94
2021/04/22 00:17:49;;;;;;;16.77;12.27;;;6.10;99.90;;;;;;6222111;23;20471;-93
2021/04/22 00:20:16;;;;;;;20.77;12.75;;;6.00;99.90;;;;;;6250178;23;20389;-93
2021/04/22 00:22:43;;;;;;;19.83;13.02;;;6.00;99.90;;;;;;6223770;23;20468;-92
2021/04/22 00:25:12;;;;;;;18.33;13.07;;;5.90;99.90;;;;;;6224102;23;20760;-93
2021/04/22 00:27:41;;;;;;;19.13;13.77;;;6.00;99.90;;;;;;6242460;23;20404;-93
2021/04/22 00:30:14;;;;;;;20.90;14.15;;;6.00;99.90;;;;;;6245772;22;20388;-92
2021/04/22 00:32:41;;;;;;;19.67;14.18;;;6.00;99.90;;;;;;6205781;23;20761;-92
2021/04/22 00:35:12;;;;;;;23.65;14.23;;;6.10;99.90;;;;;;6221725;23;20370;-92
2021/04/22 00:37:39;;;;;;;21.45;14.30;;;6.10;99.90;;;;;;6220328;23;20394;-92
2021/04/22 00:40:18;;;;;;;19.47;13.63;;;6.10;99.90;;;;;;6221144;23;20377;-93
2021/04/22 00:42:45;;;;;;;18.67;13.48;;;6.10;99.90;;;;;;6221191;23;20393;-92
2021/04/22 00:45:16;;;;;;;19.75;14.30;;;6.10;99.90;;;;;;6221214;23;20401;-94
2021/04/22 00:47:47;;;;;;;21.37;14.30;;;6.10;99.90;;;;;;6221336;23;20386;-93
2021/04/22 00:50:19;;;;;;;21.75;15.35;;;6.00;99.90;;;;;;6221072;23;20464;-93
2021/04/22 00:52:47;;;;;;;22.73;15.63;;;5.90;99.90;;;;;;6221191;23;20457;-92
2021/04/22 00:55:21;;;;;;;21.95;14.95;;;5.80;99.90;;;;;;6269695;22;20408;-93
2021/04/22 00:57:51;;;;;;;23.55;15.60;;;5.90;99.90;;;;;;6252280;22;20416;-93
2021/04/22 01:00:26;;;;;;;22.90;14.98;;;5.80;99.90;;;;;;6251368;22;20471;-93
2021/04/22 01:03:03;;;;;;;23.00;15.75;;;5.70;99.90;;;;;;6251847;22;20399;-93
2021/04/22 01:05:38;;;;;;;27.70;16.42;;;5.60;99.90;;;;;;6257918;22;20406;-93
2021/04/22 01:08:11;;;;;;;22.70;16.10;;;5.50;99.90;;;;;;6277120;22;20372;-95
2021/04/22 01:11:06;;;;;;;24.95;17.10;;;5.40;99.90;;;;;;6265409;22;20443;-94
2021/04/22 01:13:33;;;;;;;26.48;17.13;;;5.10;99.90;;;;;;6252340;22;20388;-92
2021/04/22 01:16:00;;;;;;;25.70;19.48;;;5.20;99.90;;;;;;6250897;22;20857;-93
2021/04/22 01:18:46;;;;;;;28.60;19.35;;;5.00;99.90;;;;;;6251657;22;20415;-94
2021/04/22 01:21:26;;;;;;;28.80;19.30;;;5.00;99.90;;;;;;6251241;22;20388;-93
2021/04/22 01:24:06;;;;;;;29.08;19.65;;;5.10;99.90;;;;;;6253397;22;20384;-93
2021/04/22 01:26:44;;;;;;;27.02;19.45;;;5.20;99.90;;;;;;6253724;22;20380;-93
2021/04/22 01:29:29;;;;;;;28.97;19.17;;;5.30;99.90;;;;;;6254650;22;20408;-93
2021/04/22 01:32:36;;;;;;;29.67;20.42;;;5.30;99.90;;;;;;6255100;22;20757;-93
2021/04/22 01:35:08;;;;;;;28.15;19.65;;;5.30;99.90;;;;;;6253899;22;20412;-94
2021/04/22 01:37:46;;;;;;;28.42;19.15;;;5.40;99.90;;;;;;6251977;22;20380;-94
2021/04/22 01:40:28;;;;;;;27.03;18.67;;;5.50;99.90;;;;;;6254988;22;20414;-93
2021/04/22 01:43:03;;;;;;;28.92;19.35;;;5.60;99.90;;;;;;6252836;22;20384;-93
2021/04/22 01:45:31;;;;;;;26.55;18.73;;;5.70;99.90;;;;;;6252586;22;20380;-94
2021/04/22 01:48:03;;;;;;;28.70;19.57;;;5.70;99.90;;;;;;6253262;22;20387;-92
2021/04/22 01:50:33;;;;;;;28.00;19.07;;;5.70;99.90;;;;;;6252392;22;20388;-95
2021/04/22 01:53:08;;;;;;;23.23;16.63;;;5.80;99.90;;;;;;6253896;22;20384;-93
2021/04/22 01:55:48;;;;;;;23.90;15.88;;;5.70;99.90;;;;;;6252682;22;20380;-93
2021/04/22 01:58:21;;;;;;;24.35;17.13;;;5.60;99.90;;;;;;6253318;22;20483;-93
2021/04/22 02:00:51;;;;;;;23.50;17.60;;;5.60;99.90;;;;;;6253423;22;20455;-92
2021/04/22 02:03:18;;;;;;;23.90;16.40;;;5.50;99.90;;;;;;6253696;22;20396;-92
2021/04/22 02:05:45;;;;;;;20.53;15.80;;;5.50;99.90;;;;;;6253195;22;20407;-92
2021/04/22 02:08:12;;;;;;;21.50;15.63;;;5.60;99.90;;;;;;6252685;22;20479;-92
2021/04/22 02:10:42;;;;;;;26.83;16.35;;;5.40;99.90;;;;;;6265015;22;20388;-93
2021/04/22 02:13:11;;;;;;;26.65;18.52;;;5.40;99.90;;;;;;6276359;22;20372;-93
2021/04/22 02:15:38;;;;;;;26.90;19.05;;;5.60;99.90;;;;;;6271293;22;20384;-92
2021/04/22 02:18:05;;;;;;;27.83;18.70;;;5.60;99.90;;;;;;6265855;22;20395;-92
2021/04/22 02:20:36;;;;;;;27.77;19.47;;;5.70;99.90;;;;;;6259933;22;20391;-93
2021/04/22 02:23:06;;;;;;;30.17;19.90;;;5.70;99.90;;;;;;6254127;22;20837;-94
2021/04/22 02:25:33;;;;;;;25.63;18.97;;;5.70;99.90;;;;;;6251978;22;20478;-93
2021/04/22 02:28:01;;;;;;;27.95;19.25;;;5.80;99.90;;;;;;6252858;22;20407;-93
2021/04/22 02:30:33;;;;;;;29.20;18.73;;;5.90;99.90;;;;;;6252626;22;20384;-92
2021/04/22 02:33:06;;;;;;;26.80;19.90;;;5.80;99.90;;;;;;6253238;22;20612;-93
2021/04/22 02:35:36;;;;;;;28.55;20.48;;;5.80;99.90;;;;;;6252729;22;20411;-93
2021/04/22 02:38:05;;;;;;;27.15;19.33;;;5.90;99.90;;;;;;6252650;22;20391;-93
2021/04/22 02:40:34;;;;;;;26.38;19.17;;;6.00;99.90;;;;;;6252916;22;20853;-93
2021/04/22 02:43:03;;;;;;;29.15;19.83;;;6.00;99.90;;;;;;6252356;22;20380;-94
2021/04/22 02:45:33;;;;;;;25.98;18.52;;;6.00;99.90;;;;;;6252918;22;20392;-92
2021/04/22 02:48:01;;;;;;;27.45;18.73;;;6.10;99.90;;;;;;6252348;22;20459;-93
2021/04/22 02:50:31;;;;;;;28.92;19.38;;;5.90;99.90;;;;;;6251930;22;20400;-93
2021/04/22 02:52:59;;;;;;;30.40;20.33;;;5.90;99.90;;;;;;6253377;22;20384;-92
2021/04/22 02:55:26;;;;;;;30.05;20.05;;;5.80;99.90;;;;;;6252845;22;20419;-93
2021/04/22 02:58:16;;;;;;;27.67;20.30;;;5.80;99.90;;;;;;6279918;22;20400;-93
2021/04/22 03:00:46;;;;;;;31.23;22.10;;;5.80;99.90;;;;;;6302168;22;20388;-93
2021/04/22 03:03:13;;;;;;;33.37;23.17;;;5.70;99.90;;;;;;6277580;22;20406;-93
2021/04/22 03:05:40;;;;;;;34.08;22.98;;;5.80;99.90;;;;;;6265166;22;20388;-93
2021/04/22 03:08:07;;;;;;;31.83;23.33;;;5.90;99.90;;;;;;6252808;22;20463;-93
2021/04/22 03:10:45;;;;;;;31.33;22.95;;;6.00;99.90;;;;;;6253117;22;20475;-93
2021/04/22 03:13:17;;;;;;;34.88;23.65;;;6.10;99.90;;;;;;6252823;22;20380;-93
2021/04/22 03:15:48;;;;;;;33.90;23.30;;;6.10;99.90;;;;;;6253042;22;20388;-93
2021/04/22 03:18:19;;;;;;;31.30;22.33;;;6.10;99.90;;;;;;6253128;22;20446;-94
2021/04/22 03:20:46;;;;;;;31.40;23.40;;;6.10;99.90;;;;;;6251606;22;20384;-93
2021/04/22 03:23:18;;;;;;;33.92;24.27;;;6.00;99.90;;;;;;6254370;22;20465;-93
2021/04/22 03:25:45;;;;;;;32.17;23.40;;;5.80;99.90;;;;;;6253940;22;20396;-94
2021/04/22 03:28:12;;;;;;;35.13;24.55;;;5.70;99.90;;;;;;6254718;22;20384;-93
2021/04/22 03:30:44;;;;;;;32.67;23.98;;;5.80;99.90;;;;;;6253740;22;20385;-93
2021/04/22 03:33:13;;;;;;;34.22;24.10;;;5.80;99.90;;;;;;6254676;22;20384;-94
2021/04/22 03:35:40;;;;;;;41.47;29.50;;;5.60;99.90;;;;;;6253039;22;20438;-93
2021/04/22 03:38:10;;;;;;;38.38;27.80;;;5.10;99.90;;;;;;6254659;22;20388;-93
2021/04/22 03:40:37;;;;;;;42.63;26.90;;;5.00;99.90;;;;;;6253186;22;20460;-94
2021/04/22 03:43:05;;;;;;;36.60;25.20;;;5.00;99.90;;;;;;6252956;22;20380;-93
2021/04/22 03:45:35;;;;;;;38.45;27.10;;;4.70;99.90;;;;;;6253576;22;20395;-93
2021/04/22 03:48:02;;;;;;;50.70;31.08;;;4.60;99.90;;;;;;6252104;22;20391;-93
2021/04/22 03:50:33;;;;;;;45.90;29.40;;;4.50;99.90;;;;;;6252440;22;20500;-92
2021/04/22 03:53:00;;;;;;;43.88;28.75;;;4.40;99.90;;;;;;6252054;22;20404;-94
2021/04/22 03:55:26;;;;;;;40.92;27.90;;;4.40;99.90;;;;;;6252964;22;20411;-93
2021/04/22 03:58:01;;;;;;;41.83;29.23;;;4.40;99.90;;;;;;6251565;22;20391;-92
2021/04/22 04:00:35;;;;;;;49.03;32.00;;;4.30;99.90;;;;;;6254120;22;20394;-93
2021/04/22 04:03:05;;;;;;;50.20;32.80;;;4.20;99.90;;;;;;6228670;22;20404;-93
2021/04/22 04:05:42;;;;;;;62.27;38.17;;;4.10;99.90;;;;;;6251756;22;20388;-93
2021/04/22 04:08:13;;;;;;;55.70;35.00;;;4.10;99.90;;;;;;6253902;22;20499;-94
2021/04/22 04:10:41;;;;;;;49.15;31.73;;;4.20;99.90;;;;;;6252813;22;20451;-93
2021/04/22 04:13:11;;;;;;;47.53;31.58;;;4.30;99.90;;;;;;6252590;22;20836;-93
2021/04/22 04:15:46;;;;;;;45.88;32.30;;;4.20;99.90;;;;;;6254507;22;20380;-94
2021/04/22 04:18:14;;;;;;;49.72;32.83;;;4.30;99.90;;;;;;6227850;22;20788;-93
2021/04/22 04:20:42;;;;;;;50.20;33.38;;;4.20;99.90;;;;;;6253170;22;20384;-93
2021/04/22 04:23:09;;;;;;;49.15;30.55;;;4.20;99.90;;;;;;6253187;22;20384;-93
2021/04/22 04:25:38;;;;;;;46.53;31.15;;;4.20;99.90;;;;;;6255010;22;20414;-94
2021/04/22 04:28:08;;;;;;;51.50;34.40;;;4.20;99.90;;;;;;6253481;22;20438;-94
2021/04/22 04:30:38;;;;;;;62.20;38.25;;;4.10;99.90;;;;;;6252079;22;20865;-94
2021/04/22 04:35:51;;;;;;;76.00;44.38;;;4.00;99.90;;;;;;6301089;22;20472;-93
2021/04/22 04:38:30;;;;;;;47.70;32.50;;;4.20;99.90;;;;;;6340949;22;20423;-94
2021/04/22 04:41:04;;;;;;;52.22;34.10;;;4.40;99.90;;;;;;6341352;22;20365;-94
2021/04/22 04:43:33;;;;;;;47.83;31.83;;;4.30;99.90;;;;;;6341300;22;20384;-93
2021/04/22 04:46:00;;;;;;;47.42;31.63;;;4.40;99.90;;;;;;6341768;22;20683;-92
2021/04/22 04:48:34;;;;;;;47.47;32.13;;;4.40;99.90;;;;;;6344991;22;20365;-93
2021/04/22 04:51:09;;;;;;;52.67;33.30;;;4.40;99.90;;;;;;6341397;22;20858;-93
2021/04/22 04:53:38;;;;;;;44.95;30.85;;;4.40;99.90;;;;;;6339732;22;20381;-93
2021/04/22 04:56:19;;;;;;;54.35;34.20;;;4.40;99.90;;;;;;6350964;22;20365;-93
2021/04/22 04:58:55;;;;;;;60.70;36.57;;;4.40;99.90;;;;;;6364125;22;20427;-92
2021/04/22 05:01:22;;;;;;;47.03;32.07;;;4.70;99.90;;;;;;6355603;22;20383;-93
2021/04/22 05:03:52;;;;;;;38.40;28.23;;;5.00;99.90;;;;;;6341867;22;20388;-93
2021/04/22 05:06:19;;;;;;;39.88;27.50;;;5.30;99.90;;;;;;6342204;22;20377;-93
2021/04/22 05:08:55;;;;;;;41.10;26.20;;;5.40;99.90;;;;;;6342371;22;20765;-94
2021/04/22 05:11:25;;;;;;;36.60;25.83;;;5.80;99.90;;;;;;6316215;22;20381;-92
2021/04/22 05:14:05;;;;;;;37.30;26.38;;;5.80;99.90;;;;;;6342712;22;20383;-93
2021/04/22 05:16:32;;;;;;;38.50;26.05;;;5.70;99.90;;;;;;6341215;22;20381;-93
2021/04/22 05:18:59;;;;;;;37.90;25.48;;;5.70;99.90;;;;;;6342555;22;20479;-93
2021/04/22 05:21:26;;;;;;;35.58;25.55;;;6.00;99.90;;;;;;6349045;22;20397;-93
2021/04/22 05:23:55;;;;;;;36.08;25.25;;;6.10;99.90;;;;;;6362624;22;20430;-94
2021/04/22 05:26:24;;;;;;;35.58;25.42;;;6.10;99.90;;;;;;6364381;22;20392;-94
2021/04/22 05:28:53;;;;;;;37.05;25.48;;;6.20;99.90;;;;;;6341432;22;20396;-94
2021/04/22 05:31:20;;;;;;;37.22;25.40;;;6.20;99.90;;;;;;6340771;22;20389;-94
2021/04/22 05:33:47;;;;;;;34.20;24.70;;;6.30;99.90;;;;;;6340132;22;20380;-93
2021/04/22 05:36:14;;;;;;;37.83;25.65;;;6.30;99.90;;;;;;6340216;22;20438;-93
2021/04/22 05:38:41;;;;;;;39.00;26.58;;;6.50;99.90;;;;;;6342118;22;20752;-93
2021/04/22 05:41:11;;;;;;;37.30;24.00;;;6.60;99.90;;;;;;6339397;22;20898;-93
2021/04/22 05:43:40;;;;;;;32.80;22.52;;;6.90;99.90;;;;;;6344414;22;20400;-93
2021/04/22 05:46:10;;;;;;;31.63;21.90;;;7.30;99.90;;;;;;6344809;22;20440;-93
2021/04/22 05:48:37;;;;;;;29.33;21.60;;;7.60;99.90;;;;;;6340952;22;20384;-93
2021/04/22 05:51:23;;;;;;;29.65;21.25;;;7.80;99.90;;;;;;6342077;22;20412;-95
2021/04/22 05:58:01;;;;;;;29.00;21.07;;;8.00;99.90;;;;;;6244392;22;20353;-95
2021/04/22 06:00:57;;;;;;;27.10;19.92;;;8.00;99.90;;;;;;6291636;22;20393;-94
2021/04/22 06:04:04;;;;;;;28.83;19.80;;;7.90;99.90;;;;;;6339317;22;20434;-94
2021/04/22 06:06:43;;;;;;;26.65;19.20;;;7.90;99.90;;;;;;6343801;22;20460;-94
2021/04/22 06:09:14;;;;;;;26.90;19.33;;;8.10;99.90;;;;;;6365376;22;20506;-96
2021/04/22 06:16:51;;;;;;;26.02;18.30;;;9.10;99.90;;;;;;6238291;22;20359;-94
2021/04/22 06:51:46;;;;;;;24.55;17.13;;;10.00;99.90;;;;;;6326500;22;20779;-94
2021/04/22 07:22:35;;;;;;;32.20;21.83;;;8.50;99.90;;;;;;6281513;22;20669;-95
2021/04/22 07:55:40;;;;;;;;;;;;;;;;;;;;;
2021/04/22 08:08:48;;;;;;;30.63;21.00;;;8.90;99.90;;;;;;6356358;22;20385;-95
2021/04/22 08:20:38;;;;;;;27.08;20.30;;;9.40;99.90;;;;;;6308767;22;20402;-95
2021/04/22 08:24:09;;;;;;;26.88;19.10;;;9.60;99.90;;;;;;6325832;22;20867;-96
2021/04/22 08:28:02;;;;;;;27.70;20.13;;;9.90;99.90;;;;;;6271123;22;20369;-96
2021/04/22 08:43:30;;;;;;;27.50;19.42;;;10.00;99.90;;;;;;6319339;22;20387;-96
2021/04/22 08:46:03;;;;;;;27.10;19.23;;;10.00;99.90;;;;;;6297184;22;20389;-95
2021/04/22 08:48:42;;;;;;;29.00;19.48;;;10.30;99.90;;;;;;6334735;22;20370;-96
2021/04/22 08:51:28;;;;;;;26.05;17.98;;;10.50;99.90;;;;;;6309272;22;20386;-94
2021/04/22 08:55:07;;;;;;;24.10;17.60;;;11.20;99.90;;;;;;6226871;23;20401;-94
2021/04/22 09:05:52;;;;;;;22.42;15.95;;;11.70;99.90;;;;;;6283065;22;20393;-96
2021/04/22 09:12:21;;;;;;;21.65;16.38;;;12.00;99.90;;;;;;6308461;22;20394;-96
2021/04/22 09:15:12;;;;;;;23.95;17.42;;;11.90;99.90;;;;;;6301580;22;20371;-96
2021/04/22 09:17:40;;;;;;;22.63;16.70;;;11.50;99.90;;;;;;6295987;22;20863;-96
2021/04/22 09:20:10;;;;;;;20.90;15.55;;;11.20;99.90;;;;;;6293459;22;20497;-96
2021/04/22 09:22:40;;;;;;;25.90;16.48;;;10.80;99.90;;;;;;6292600;22;20858;-95
2021/04/22 09:25:20;;;;;;;26.83;17.60;;;10.50;99.90;;;;;;6254092;22;20384;-96
2021/04/22 09:28:15;;;;;;;26.33;18.93;;;10.00;99.90;;;;;;6271115;22;20420;-96
2021/04/22 09:30:47;;;;;;;31.10;19.10;;;9.70;99.90;;;;;;6296567;22;20424;-95
2021/04/22 09:33:45;;;;;;;24.20;17.40;;;8.90;99.90;;;;;;6249793;22;20364;-95
2021/04/22 09:36:43;;;;;;;29.98;20.45;;;8.10;99.90;;;;;;6279672;22;20460;-95
2021/04/22 09:39:12;;;;;;;29.70;19.10;;;7.60;99.90;;;;;;6266552;22;20383;-95
2021/04/22 09:41:41;;;;;;;25.40;18.75;;;7.50;99.90;;;;;;6260234;22;20721;-96
2021/04/22 09:44:11;;;;;;;26.50;19.17;;;7.30;99.90;;;;;;6259560;22;20391;-96
2021/04/22 09:46:43;;;;;;;28.73;20.15;;;7.20;99.90;;;;;;6285391;22;20385;-96
2021/04/22 09:49:23;;;;;;;27.45;20.83;;;7.00;99.90;;;;;;6287293;22;20379;-95
2021/04/22 09:52:13;;;;;;;27.33;18.83;;;7.10;99.90;;;;;;6269508;22;20397;-96
2021/04/22 09:54:51;;;;;;;28.52;19.08;;;7.20;99.90;;;;;;6290517;22;20392;-94
2021/04/22 09:57:36;;;;;;;29.77;19.13;;;7.20;99.90;;;;;;6261800;22;20382;-95
2021/04/22 10:00:09;;;;;;;29.93;20.47;;;7.20;99.90;;;;;;6261118;22;20387;-94
2021/04/22 10:02:57;;;;;;;30.48;22.15;;;7.30;99.90;;;;;;6256695;22;20399;-95
2021/04/22 10:05:34;;;;;;;24.45;17.30;;;8.00;99.90;;;;;;6277748;22;20452;-95
2021/04/22 10:14:00;;;;;;;23.10;15.38;;;8.70;99.90;;;;;;6288520;22;20463;-93
2021/04/22 10:16:34;;;;;;;24.13;16.77;;;8.40;99.90;;;;;;6250111;22;20368;-93
2021/04/22 10:19:17;;;;;;;23.23;16.77;;;8.40;99.90;;;;;;6228946;22;20392;-95
2021/04/22 10:21:45;;;;;;;21.90;15.70;;;8.40;99.90;;;;;;6249543;22;20395;-95
2021/04/22 10:24:14;;;;;;;21.85;14.45;;;9.00;99.90;;;;;;6249956;22;20927;-94
2021/04/22 10:26:43;;;;;;;18.60;12.98;;;10.10;99.90;;;;;;6249990;22;20392;-94
2021/04/22 10:29:13;;;;;;;17.88;13.52;;;10.90;99.90;;;;;;6250130;22;20396;-94
2021/04/22 10:31:40;;;;;;;17.58;12.73;;;11.20;99.90;;;;;;6249842;22;20757;-96
2021/04/22 10:34:09;;;;;;;17.88;13.15;;;11.40;99.90;;;;;;6249850;22;20438;-94
2021/04/22 10:36:38;;;;;;;21.17;13.60;;;11.40;99.90;;;;;;6249706;22;20384;-94
2021/04/22 10:39:06;;;;;;;23.00;16.52;;;11.30;99.90;;;;;;6249765;22;20387;-95
2021/04/22 10:41:35;;;;;;;25.23;18.00;;;10.80;99.90;;;;;;6249488;22;20384;-95
2021/04/22 10:44:05;;;;;;;27.53;21.17;;;10.20;99.90;;;;;;6276019;22;20368;-95
2021/04/22 10:46:36;;;;;;;26.77;19.77;;;9.50;99.90;;;;;;6275500;22;20372;-95
2021/04/22 10:49:18;;;;;;;41.40;28.90;;;9.00;99.90;;;;;;6233117;22;20408;-96
2021/04/22 10:51:46;;;;;;;33.72;25.38;;;8.60;99.90;;;;;;6257037;22;20475;-95
2021/04/22 10:54:16;;;;;;;30.42;23.45;;;8.70;99.90;;;;;;6264550;22;20397;-96
2021/04/22 10:57:32;;;;;;;30.95;23.13;;;9.30;99.90;;;;;;6248196;22;20360;-96
2021/04/22 11:08:43;;;;;;;28.17;21.83;;;11.00;99.90;;;;;;6178232;23;20358;-96
2021/04/22 11:16:24;;;;;;;30.13;21.95;;;10.40;99.90;;;;;;6003615;23;20906;-96
2021/04/22 11:19:18;;;;;;;29.30;21.35;;;10.20;99.90;;;;;;5968659;24;20398;-95
2021/04/22 11:21:52;;;;;;;29.00;21.02;;;10.30;99.90;;;;;;5946849;24;20534;-96
2021/04/22 11:24:43;;;;;;;33.40;23.00;;;10.60;99.90;;;;;;5948452;24;20383;-95
2021/04/22 11:28:03;;;;;;;29.70;20.27;;;11.00;99.90;;;;;;5997405;24;20403;-92
2021/04/22 11:34:48;;;;;;;30.30;20.65;;;11.20;99.90;;;;;;5896134;24;20404;-94
2021/04/22 11:37:46;;;;;;;28.00;19.88;;;11.70;99.90;;;;;;5863930;24;20505;-93
2021/04/22 11:40:21;;;;;;;28.75;20.13;;;11.50;99.90;;;;;;5857627;24;20406;-95
2021/04/22 11:42:52;;;;;;;31.48;19.23;;;11.20;99.90;;;;;;5881082;24;20440;-94
2021/04/22 11:45:30;;;;;;;32.03;22.70;;;11.20;99.90;;;;;;5907404;24;20390;-94
2021/04/22 11:48:02;;;;;;;31.92;20.35;;;11.10;99.90;;;;;;5967895;24;20445;-95
2021/04/22 11:50:46;;;;;;;29.75;20.92;;;11.60;99.90;;;;;;5966416;24;20421;-95
2021/04/22 11:53:37;;;;;;;28.92;20.27;;;11.90;99.90;;;;;;5956234;24;20430;-95
2021/04/22 11:56:12;;;;;;;27.67;19.73;;;12.10;99.90;;;;;;5930040;24;20426;-94
2021/04/22 11:58:40;;;;;;;29.60;20.83;;;12.00;99.90;;;;;;5957095;24;20402;-94
2021/04/22 12:01:10;;;;;;;28.85;19.83;;;11.30;99.90;;;;;;5955928;24;20703;-93
2021/04/22 12:03:39;;;;;;;31.17;21.05;;;10.90;99.90;;;;;;5956129;24;20422;-95
2021/04/22 12:06:11;;;;;;;32.42;21.90;;;10.70;99.90;;;;;;5955625;24;20710;-93
2021/04/22 12:08:43;;;;;;;28.03;19.20;;;11.20;99.90;;;;;;5934480;24;20695;-94
2021/04/22 12:14:13;;;;;;;27.00;19.30;;;10.60;99.90;;;;;;6012085;23;20387;-92
2021/04/22 12:16:46;;;;;;;31.52;21.80;;;10.00;99.90;;;;;;6030725;23;20410;-95
2021/04/22 12:19:27;;;;;;;28.27;20.35;;;9.90;99.90;;;;;;6094411;23;20391;-93
2021/04/22 12:22:00;;;;;;;31.47;21.00;;;9.90;99.90;;;;;;6072560;23;20418;-94
2021/04/22 12:24:30;;;;;;;22.40;16.97;;;10.20;99.90;;;;;;6073768;23;20395;-95
2021/04/22 12:27:02;;;;;;;24.02;17.67;;;11.00;99.90;;;;;;6095122;23;20419;-94
2021/04/22 12:29:35;;;;;;;23.63;16.50;;;11.70;99.90;;;;;;6162610;23;20393;-94
2021/04/22 12:32:09;;;;;;;20.70;17.02;;;12.40;98.10;;;;;;6162065;23;20377;-95
2021/04/22 12:35:28;;;;;;;22.80;17.20;;;12.90;98.00;;;;;;6293759;22;20386;-94
2021/04/22 12:38:36;;;;;;;;;;;;;;;;;;;;;
2021/04/22 12:44:34;;;;;;;25.00;17.35;;;14.40;91.80;;;;;;6221856;22;20390;-94
2021/04/22 12:47:35;;;;;;;28.35;17.38;;;14.70;93.20;;;;;;6192205;23;20391;-94
2021/04/22 12:54:42;;;;;;;22.75;17.40;;;15.70;86.80;;;;;;6219301;23;20363;-94
2021/04/22 12:58:14;;;;;;;23.00;17.08;;;15.00;86.90;;;;;;6218657;23;20384;-94
2021/04/22 13:01:13;;;;;;;25.40;18.57;;;15.00;86.00;;;;;;6032834;23;20495;-94
2021/04/22 13:04:11;;;;;;;24.73;17.38;;;15.00;89.50;;;;;;6125263;23;20432;-94
2021/04/22 13:06:46;;;;;;;22.85;17.00;;;15.30;83.60;;;;;;6192372;23;20391;-93
2021/04/22 13:14:02;;;;;;;24.40;17.13;;;14.30;84.30;;;;;;6303608;22;20400;-95
2021/04/22 13:16:53;;;;;;;22.80;16.42;;;13.60;89.70;;;;;;6316635;22;20376;-93
2021/04/22 13:19:22;;;;;;;23.60;16.35;;;12.80;93.10;;;;;;6314720;22;20381;-93
2021/04/22 13:21:55;;;;;;;21.15;15.07;;;12.90;91.00;;;;;;6313007;22;20377;-91
2021/04/22 13:24:25;;;;;;;25.30;16.47;;;12.70;90.40;;;;;;6340285;22;20385;-93
2021/04/22 13:26:53;;;;;;;22.70;15.65;;;12.30;91.80;;;;;;6314307;22;20476;-92
2021/04/22 13:29:21;;;;;;;23.80;15.20;;;12.20;92.40;;;;;;6313901;22;20418;-93
2021/04/22 13:31:53;;;;;;;21.05;14.20;;;12.10;93.80;;;;;;6314102;22;20415;-93
2021/04/22 13:34:22;;;;;;;22.70;14.07;;;12.30;93.20;;;;;;6313810;22;20733;-93
2021/04/22 13:36:57;;;;;;;20.57;14.10;;;12.60;92.60;;;;;;6312152;22;20463;-92
2021/04/22 13:39:35;;;;;;;18.45;14.13;;;12.50;92.30;;;;;;6314713;22;20395;-95
2021/04/22 13:42:02;;;;;;;21.60;13.80;;;12.40;91.90;;;;;;6313951;22;20465;-94
2021/04/22 13:44:32;;;;;;;20.67;14.43;;;12.30;92.30;;;;;;6313191;22;20798;-94
2021/04/22 13:47:12;;;;;;;21.15;13.80;;;12.30;92.60;;;;;;6315091;22;20387;-94
2021/04/22 13:49:43;;;;;;;20.50;13.70;;;12.50;93.20;;;;;;6316850;22;20380;-95
2021/04/22 13:52:13;;;;;;;20.35;13.93;;;12.80;92.20;;;;;;6320097;22;20518;-93
2021/04/22 13:54:43;;;;;;;19.65;13.70;;;12.40;93.40;;;;;;6322710;22;20404;-93
2021/04/22 13:57:24;;;;;;;18.33;13.70;;;12.10;93.50;;;;;;6323743;22;20384;-93
2021/04/22 14:00:16;;;;;;;15.85;12.45;;;11.90;95.20;;;;;;6324226;22;20440;-93
2021/04/22 14:02:47;;;;;;;20.92;12.50;;;12.80;93.60;;;;;;6338852;22;20386;-93
2021/04/22 14:05:28;;;;;;;14.25;10.43;;;13.70;90.80;;;;;;6338488;22;20365;-94
2021/04/22 14:07:59;;;;;;;17.20;10.05;;;14.10;81.80;;;;;;6338041;22;20520;-93
2021/04/22 14:10:32;;;;;;;13.50;9.50;;;13.80;81.30;;;;;;6315925;22;20479;-93
2021/04/22 14:13:00;;;;;;;15.50;10.05;;;13.10;85.20;;;;;;6312584;22;20377;-94
2021/04/22 14:15:26;;;;;;;16.35;11.15;;;13.20;90.00;;;;;;6311727;22;20412;-94
2021/04/22 14:17:53;;;;;;;14.93;9.52;;;13.50;92.80;;;;;;6314332;22;20448;-94
2021/04/22 14:51:08;;;;;;;12.40;7.68;;;14.80;75.30;;;;;;6309880;22;20469;-95
2021/04/22 14:54:10;;;;;;;13.63;8.68;;;14.30;72.90;;;;;;6325713;22;20408;-94
2021/04/22 15:12:28;;;;;;;13.38;6.40;;;13.30;74.60;;;;;;6291173;22;20352;-96
2021/04/22 16:19:16;;;;;;;4.80;2.30;;;14.10;35.50;;;;;;6325992;22;20369;-96
2021/04/22 16:35:26;;;;;;;4.63;1.95;;;13.60;33.10;;;;;;6331785;22;20445;-96
2021/04/22 16:42:02;;;;;;;4.88;2.00;;;12.60;32.40;;;;;;6315097;22;20402;-96
2021/04/22 16:47:49;;;;;;;5.85;2.10;;;12.30;32.00;;;;;;6269567;22;20406;-96
2021/04/22 16:53:19;;;;;;;4.93;2.25;;;12.00;32.10;;;;;;6346538;22;20371;-95
2021/04/22 16:56:07;;;;;;;4.90;2.47;;;11.80;32.70;;;;;;6297969;22;20364;-94
2021/04/22 16:59:19;;;;;;;5.20;1.90;;;11.60;33.90;;;;;;6294654;22;20380;-96
2021/04/22 17:05:29;;;;;;;3.57;2.07;;;11.60;33.50;;;;;;6374711;22;20375;-95
2021/04/22 17:08:44;;;;;;;5.07;2.10;;;11.50;33.90;;;;;;6324742;22;20438;-94
2021/04/22 17:11:49;;;;;;;6.28;2.58;;;11.60;33.90;;;;;;6307725;22;20481;-94
2021/04/22 17:48:52;;;;;;;9.98;3.97;;;9.70;75.30;;;;;;6285109;22;21817;-95
2021/04/22 17:52:16;;;;;;;10.95;3.53;;;9.60;72.90;;;;;;6302492;22;20457;-95
2021/04/22 19:02:02;;;;;;;12.18;3.03;;;6.20;63.70;;;;;;6286576;22;20360;-96
2021/04/22 19:05:24;;;;;;;12.13;3.00;;;6.20;64.40;;;;;;6320085;22;20466;-96
2021/04/22 19:08:21;;;;;;;9.10;2.80;;;6.20;65.40;;;;;;6190267;23;20413;-95
2021/04/22 20:40:50;;;;;;;22.53;6.17;;;2.70;99.90;;;;;;6306235;22;20399;-94
2021/04/22 20:43:31;;;;;;;24.33;6.80;;;2.50;99.90;;;;;;6336121;22;20438;-94
2021/04/22 20:46:04;;;;;;;22.83;6.53;;;2.60;99.90;;;;;;6339016;22;20380;-96
2021/04/22 20:48:59;;;;;;;21.80;6.27;;;2.50;99.90;;;;;;6165873;23;20377;-94
2021/04/22 21:01:43;;;;;;;21.23;5.95;;;2.20;99.90;;;;;;6311949;22;20414;-94
2021/04/22 21:08:03;;;;;;;23.67;6.10;;;2.30;99.90;;;;;;6311802;22;20407;-93
2021/04/22 21:11:24;;;;;;;21.50;5.68;;;2.20;99.90;;;;;;6242218;23;20430;-96
2021/04/22 21:18:17;;;;;;;20.30;5.67;;;2.20;99.90;;;;;;5935908;23;20380;-95
2021/04/22 21:21:32;;;;;;;20.17;6.00;;;2.10;99.90;;;;;;6043919;23;20394;-96
2021/04/22 21:28:11;;;;;;;23.70;6.03;;;2.00;99.90;;;;;;6272185;22;20390;-95
2021/04/22 21:34:45;;;;;;;19.23;5.78;;;2.00;99.90;;;;;;6339434;22;20443;-95
2021/04/22 21:37:29;;;;;;;22.85;5.65;;;2.00;99.90;;;;;;6317913;22;20381;-95
2021/04/22 21:40:21;;;;;;;17.90;5.28;;;1.90;99.90;;;;;;6294411;22;20373;-95
2021/04/22 21:47:47;;;;;;;21.58;5.63;;;1.80;99.90;;;;;;6227487;23;20353;-96
2021/04/22 21:51:03;;;;;;;18.85;5.30;;;1.70;99.90;;;;;;6207158;23;20410;-95
2021/04/22 21:54:16;;;;;;;22.98;5.95;;;1.80;99.90;;;;;;6196075;23;20368;-95
2021/04/22 21:57:17;;;;;;;20.25;5.40;;;1.70;99.90;;;;;;6189019;23;20367;-96
2021/04/22 22:00:16;;;;;;;23.38;5.75;;;1.70;99.90;;;;;;6145746;23;20415;-95
2021/04/22 22:02:57;;;;;;;22.67;5.78;;;1.60;99.90;;;;;;6191436;23;20392;-95
2021/04/22 22:05:39;;;;;;;20.75;5.75;;;1.60;99.90;;;;;;6191287;23;20383;-96
2021/04/22 22:08:15;;;;;;;22.75;5.15;;;1.50;99.90;;;;;;6216557;23;20391;-95
2021/04/22 22:10:52;;;;;;;22.03;5.70;;;1.40;99.90;;;;;;6191694;23;20794;-95
2021/04/22 22:13:59;;;;;;;18.65;6.07;;;1.30;99.90;;;;;;6203520;23;20381;-96
2021/04/22 22:16:51;;;;;;;22.40;6.18;;;1.20;99.90;;;;;;6224016;22;20376;-95
2021/04/22 22:19:44;;;;;;;25.27;6.75;;;1.10;99.90;;;;;;6283116;22;20453;-96
2021/04/22 22:22:13;;;;;;;22.80;6.43;;;1.10;99.90;;;;;;6280930;22;20382;-95
2021/04/22 22:25:01;;;;;;;25.40;5.93;;;1.20;99.90;;;;;;6307846;22;20759;-95
2021/04/22 22:27:36;;;;;;;26.08;6.30;;;1.20;99.90;;;;;;6281968;22;20379;-95
2021/04/22 22:30:17;;;;;;;22.02;5.32;;;1.10;99.90;;;;;;6306701;22;20382;-95
2021/04/22 22:32:53;;;;;;;16.63;5.68;;;0.90;99.90;;;;;;6283030;22;20484;-96
2021/04/22 22:35:30;;;;;;;21.63;5.60;;;0.90;99.90;;;;;;6279988;22;20409;-96
2021/04/22 22:38:16;;;;;;;23.95;5.75;;;0.90;99.90;;;;;;6282583;22;20383;-95